sensor_id;sensor_type;location;lat;lon;timestamp;temperature;humidity
13211;DHT22;6670;51.53087800;7.23266500;2024-02-15T00:00:23;14.40;99.90
13211;DHT22;6670;51.53087800;7.23266500;2024-02-15T00:02:53;14.40;99.90
13211;DHT22;6670;51.53087800;7.23266500;2024-02-15T00:05:20;14.40;99.90
13211;DHT22;6670;51.53087800;7.23266500;2024-02-15T00:07:49;14.50;99.90
13211;DHT22;6670;51.53087800;7.23266500;2024-02-15T00:10:17;14.50;99.90
13211;DHT22;6670;51.53087800;7.23266500;2024-02-15T00:12:49;14.50;99.90
13211;DHT22;6670;51.53087800;7.23266500;2024-02-15T00:15:17;14.50;99.90
13211;DHT22;6670;51.53087800;7.23266500;2024-02-15T00:17:46;14.50;99.90
13211;DHT22;6670;51.53087800;7.23266500;2024-02-15T00:20:14;14.40;99.90
13211;DHT22;6670;51.53087800;7.23266500;2024-02-15T00:22:43;14.40;99.90
13211;DHT22;6670;51.53087800;7.23266500;2024-02-15T00:25:12;14.40;99.90
13211;DHT22;6670;51.53087800;7.23266500;2024-02-15T00:27:40;14.40;99.90
13211;DHT22;6670;51.53087800;7.23266500;2024-02-15T00:30:09;14.40;99.90
13211;DHT22;6670;51.53087800;7.23266500;2024-02-15T00:32:37;14.40;99.90
13211;DHT22;6670;51.53087800;7.23266500;2024-02-15T00:35:05;14.40;99.90
13211;DHT22;6670;51.53087800;7.23266500;2024-02-15T00:37:35;14.40;99.90
13211;DHT22;6670;51.53087800;7.23266500;2024-02-15T00:40:02;14.40;99.90
13211;DHT22;6670;51.53087800;7.23266500;2024-02-15T00:42:31;14.40;99.90
13211;DHT22;6670;51.53087800;7.23266500;2024-02-15T00:44:59;14.40;99.90
13211;DHT22;6670;51.53087800;7.23266500;2024-02-15T00:47:26;14.50;99.90
13211;DHT22;6670;51.53087800;7.23266500;2024-02-15T00:49:54;14.50;99.90
13211;DHT22;6670;51.53087800;7.23266500;2024-02-15T00:52:22;14.50;99.90
13211;DHT22;6670;51.53087800;7.23266500;2024-02-15T00:54:50;14.50;99.90
13211;DHT22;6670;51.53087800;7.23266500;2024-02-15T00:57:19;14.50;99.90
13211;DHT22;6670;51.53087800;7.23266500;2024-02-15T00:59:51;14.60;99.90
13211;DHT22;6670;51.53087800;7.23266500;2024-02-15T01:02:19;14.60;99.90
13211;DHT22;6670;51.53087800;7.23266500;2024-02-15T01:04:47;14.60;99.90
13211;DHT22;6670;51.53087800;7.23266500;2024-02-15T01:07:16;14.60;99.90
13211;DHT22;6670;51.53087800;7.23266500;2024-02-15T01:09:43;14.60;99.90
13211;DHT22;6670;51.53087800;7.23266500;2024-02-15T01:12:11;14.70;99.90
13211;DHT22;6670;51.53087800;7.23266500;2024-02-15T01:14:39;14.70;99.90
13211;DHT22;6670;51.53087800;7.23266500;2024-02-15T01:17:08;14.70;99.90
13211;DHT22;6670;51.53087800;7.23266500;2024-02-15T01:19:35;14.80;99.90
13211;DHT22;6670;51.53087800;7.23266500;2024-02-15T01:22:03;14.80;99.90
13211;DHT22;6670;51.53087800;7.23266500;2024-02-15T01:24:32;14.80;99.90
13211;DHT22;6670;51.53087800;7.23266500;2024-02-15T01:26:59;14.80;99.90
13211;DHT22;6670;51.53087800;7.23266500;2024-02-15T01:29:27;14.80;99.90
13211;DHT22;6670;51.53087800;7.23266500;2024-02-15T01:31:55;14.80;99.90
13211;DHT22;6670;51.53087800;7.23266500;2024-02-15T01:34:23;14.80;99.90
13211;DHT22;6670;51.53087800;7.23266500;2024-02-15T01:36:51;14.80;99.90
13211;DHT22;6670;51.53087800;7.23266500;2024-02-15T01:39:18;14.80;99.90
13211;DHT22;6670;51.53087800;7.23266500;2024-02-15T01:41:49;14.80;99.90
13211;DHT22;6670;51.53087800;7.23266500;2024-02-15T01:44:18;14.80;99.90
13211;DHT22;6670;51.53087800;7.23266500;2024-02-15T01:46:47;14.80;99.90
13211;DHT22;6670;51.53087800;7.23266500;2024-02-15T01:49:16;14.80;99.90
13211;DHT22;6670;51.53087800;7.23266500;2024-02-15T01:51:45;14.80;99.90
13211;DHT22;6670;51.53087800;7.23266500;2024-02-15T01:54:13;14.80;99.90
13211;DHT22;6670;51.53087800;7.23266500;2024-02-15T01:56:43;14.80;99.90
13211;DHT22;6670;51.53087800;7.23266500;2024-02-15T01:59:11;14.80;99.90
13211;DHT22;6670;51.53087800;7.23266500;2024-02-15T03:25:06;14.20;99.90
13211;DHT22;6670;51.53087800;7.23266500;2024-02-15T03:31:20;14.10;99.90
13211;DHT22;6670;51.53087800;7.23266500;2024-02-15T04:16:41;13.80;99.90
13211;DHT22;6670;51.53087800;7.23266500;2024-02-15T04:53:24;13.70;99.90
13211;DHT22;6670;51.53087800;7.23266500;2024-02-15T06:34:43;13.50;99.90
13211;DHT22;6670;51.53087800;7.23266500;2024-02-15T06:37:38;13.50;99.90
13211;DHT22;6670;51.53087800;7.23266500;2024-02-15T06:40:23;13.50;99.90
13211;DHT22;6670;51.53087800;7.23266500;2024-02-15T06:42:57;13.50;99.90
13211;DHT22;6670;51.53087800;7.23266500;2024-02-15T06:45:27;13.50;99.90
13211;DHT22;6670;51.53087800;7.23266500;2024-02-15T06:47:58;13.50;99.90
13211;DHT22;6670;51.53087800;7.23266500;2024-02-15T06:50:26;13.50;99.90
13211;DHT22;6670;51.53087800;7.23266500;2024-02-15T06:52:55;13.40;99.90
13211;DHT22;6670;51.53087800;7.23266500;2024-02-15T06:55:23;13.40;99.90
13211;DHT22;6670;51.53087800;7.23266500;2024-02-15T06:57:51;13.40;99.90
13211;DHT22;6670;51.53087800;7.23266500;2024-02-15T07:00:22;13.40;99.90
13211;DHT22;6670;51.53087800;7.23266500;2024-02-15T07:02:51;13.40;99.90
13211;DHT22;6670;51.53087800;7.23266500;2024-02-15T07:05:19;13.40;99.90
13211;DHT22;6670;51.53087800;7.23266500;2024-02-15T07:07:48;13.50;99.90
13211;DHT22;6670;51.53087800;7.23266500;2024-02-15T07:10:16;13.40;99.90
13211;DHT22;6670;51.53087800;7.23266500;2024-02-15T07:12:43;13.50;99.90
13211;DHT22;6670;51.53087800;7.23266500;2024-02-15T07:15:11;13.40;99.90
13211;DHT22;6670;51.53087800;7.23266500;2024-02-15T07:17:38;13.50;99.90
13211;DHT22;6670;51.53087800;7.23266500;2024-02-15T07:20:07;13.40;99.90
13211;DHT22;6670;51.53087800;7.23266500;2024-02-15T07:22:36;13.50;99.90
13211;DHT22;6670;51.53087800;7.23266500;2024-02-15T07:25:07;13.50;99.90
13211;DHT22;6670;51.53087800;7.23266500;2024-02-15T07:27:35;13.50;99.90
13211;DHT22;6670;51.53087800;7.23266500;2024-02-15T07:30:02;13.50;99.90
13211;DHT22;6670;51.53087800;7.23266500;2024-02-15T07:32:31;13.50;99.90
13211;DHT22;6670;51.53087800;7.23266500;2024-02-15T07:35:01;13.40;99.90
13211;DHT22;6670;51.53087800;7.23266500;2024-02-15T07:37:29;13.50;99.90
13211;DHT22;6670;51.53087800;7.23266500;2024-02-15T07:39:56;13.40;99.90
13211;DHT22;6670;51.53087800;7.23266500;2024-02-15T07:42:26;13.40;99.90
13211;DHT22;6670;51.53087800;7.23266500;2024-02-15T07:44:54;13.50;99.90
13211;DHT22;6670;51.53087800;7.23266500;2024-02-15T07:47:21;13.40;99.90
13211;DHT22;6670;51.53087800;7.23266500;2024-02-15T07:49:50;13.50;99.90
13211;DHT22;6670;51.53087800;7.23266500;2024-02-15T07:52:18;13.50;99.90
13211;DHT22;6670;51.53087800;7.23266500;2024-02-15T07:54:46;13.50;99.90
13211;DHT22;6670;51.53087800;7.23266500;2024-02-15T07:57:13;13.50;99.90
13211;DHT22;6670;51.53087800;7.23266500;2024-02-15T07:59:42;13.50;99.90
13211;DHT22;6670;51.53087800;7.23266500;2024-02-15T08:02:10;13.50;99.90
13211;DHT22;6670;51.53087800;7.23266500;2024-02-15T08:04:38;13.50;99.90
13211;DHT22;6670;51.53087800;7.23266500;2024-02-15T08:07:07;13.50;99.90
13211;DHT22;6670;51.53087800;7.23266500;2024-02-15T08:09:47;13.50;99.90
13211;DHT22;6670;51.53087800;7.23266500;2024-02-15T08:12:16;13.50;99.90
13211;DHT22;6670;51.53087800;7.23266500;2024-02-15T08:18:09;13.50;99.90
13211;DHT22;6670;51.53087800;7.23266500;2024-02-15T08:20:38;13.50;99.90
13211;DHT22;6670;51.53087800;7.23266500;2024-02-15T08:23:06;13.50;99.90
13211;DHT22;6670;51.53087800;7.23266500;2024-02-15T08:25:38;13.50;99.90
13211;DHT22;6670;51.53087800;7.23266500;2024-02-15T08:28:06;13.60;99.90
13211;DHT22;6670;51.53087800;7.23266500;2024-02-15T08:30:34;13.60;99.90
13211;DHT22;6670;51.53087800;7.23266500;2024-02-15T08:33:03;13.60;99.90
13211;DHT22;6670;51.53087800;7.23266500;2024-02-15T08:35:32;13.60;99.90
13211;DHT22;6670;51.53087800;7.23266500;2024-02-15T08:38:00;13.60;99.90
13211;DHT22;6670;51.53087800;7.23266500;2024-02-15T08:40:46;13.60;99.90
13211;DHT22;6670;51.53087800;7.23266500;2024-02-15T08:43:14;13.70;99.90
13211;DHT22;6670;51.53087800;7.23266500;2024-02-15T08:45:42;13.70;99.90
13211;DHT22;6670;51.53087800;7.23266500;2024-02-15T08:48:10;13.70;99.90
13211;DHT22;6670;51.53087800;7.23266500;2024-02-15T08:50:39;13.70;99.90
13211;DHT22;6670;51.53087800;7.23266500;2024-02-15T08:53:08;13.70;99.90
13211;DHT22;6670;51.53087800;7.23266500;2024-02-15T08:55:35;13.70;99.90
13211;DHT22;6670;51.53087800;7.23266500;2024-02-15T08:58:03;13.70;99.90
13211;DHT22;6670;51.53087800;7.23266500;2024-02-15T09:00:31;13.70;99.90
13211;DHT22;6670;51.53087800;7.23266500;2024-02-15T09:03:02;13.70;99.90
13211;DHT22;6670;51.53087800;7.23266500;2024-02-15T09:05:29;13.80;99.90
13211;DHT22;6670;51.53087800;7.23266500;2024-02-15T09:07:58;13.70;99.90
13211;DHT22;6670;51.53087800;7.23266500;2024-02-15T09:10:29;13.70;99.90
13211;DHT22;6670;51.53087800;7.23266500;2024-02-15T09:12:57;13.70;99.90
13211;DHT22;6670;51.53087800;7.23266500;2024-02-15T09:15:24;13.70;99.90
13211;DHT22;6670;51.53087800;7.23266500;2024-02-15T09:17:52;13.70;99.90
13211;DHT22;6670;51.53087800;7.23266500;2024-02-15T09:20:20;13.70;99.90
13211;DHT22;6670;51.53087800;7.23266500;2024-02-15T09:22:51;13.80;99.90
13211;DHT22;6670;51.53087800;7.23266500;2024-02-15T09:25:22;13.80;99.90
13211;DHT22;6670;51.53087800;7.23266500;2024-02-15T09:27:51;13.70;99.90
13211;DHT22;6670;51.53087800;7.23266500;2024-02-15T09:30:20;13.80;99.90
13211;DHT22;6670;51.53087800;7.23266500;2024-02-15T09:32:51;13.80;99.90
13211;DHT22;6670;51.53087800;7.23266500;2024-02-15T09:35:21;13.80;99.90
13211;DHT22;6670;51.53087800;7.23266500;2024-02-15T09:37:49;13.80;99.90
13211;DHT22;6670;51.53087800;7.23266500;2024-02-15T09:40:17;13.80;99.90
13211;DHT22;6670;51.53087800;7.23266500;2024-02-15T09:42:47;13.80;99.90
13211;DHT22;6670;51.53087800;7.23266500;2024-02-15T09:45:15;13.80;99.90
13211;DHT22;6670;51.53087800;7.23266500;2024-02-15T09:47:44;13.80;99.90
13211;DHT22;6670;51.53087800;7.23266500;2024-02-15T09:50:13;13.90;99.90
13211;DHT22;6670;51.53087800;7.23266500;2024-02-15T09:52:44;13.90;99.90
13211;DHT22;6670;51.53087800;7.23266500;2024-02-15T09:55:12;13.80;99.90
13211;DHT22;6670;51.53087800;7.23266500;2024-02-15T09:57:43;13.90;99.90
13211;DHT22;6670;51.53087800;7.23266500;2024-02-15T10:00:13;13.90;99.90
13211;DHT22;6670;51.53087800;7.23266500;2024-02-15T10:02:42;13.90;99.90
13211;DHT22;6670;51.53087800;7.23266500;2024-02-15T10:05:10;14.00;99.90
13211;DHT22;6670;51.53087800;7.23266500;2024-02-15T10:07:38;14.00;99.90
13211;DHT22;6670;51.53087800;7.23266500;2024-02-15T10:10:16;14.00;99.90
13211;DHT22;6670;51.53087800;7.23266500;2024-02-15T10:12:45;14.00;99.90
13211;DHT22;6670;51.53087800;7.23266500;2024-02-15T10:15:33;13.90;99.90
13211;DHT22;6670;51.53087800;7.23266500;2024-02-15T10:18:01;13.90;99.90
13211;DHT22;6670;51.53087800;7.23266500;2024-02-15T10:20:29;13.90;99.90
13211;DHT22;6670;51.53087800;7.23266500;2024-02-15T10:23:18;13.90;99.90
13211;DHT22;6670;51.53087800;7.23266500;2024-02-15T10:25:45;13.90;99.90
13211;DHT22;6670;51.53087800;7.23266500;2024-02-15T10:28:19;13.90;99.90
13211;DHT22;6670;51.53087800;7.23266500;2024-02-15T10:30:51;13.90;99.90
13211;DHT22;6670;51.53087800;7.23266500;2024-02-15T10:33:28;13.90;99.90
13211;DHT22;6670;51.53087800;7.23266500;2024-02-15T10:36:05;14.00;99.90
13211;DHT22;6670;51.53087800;7.23266500;2024-02-15T10:38:33;14.00;99.90
13211;DHT22;6670;51.53087800;7.23266500;2024-02-15T10:41:03;14.00;99.90
13211;DHT22;6670;51.53087800;7.23266500;2024-02-15T10:43:33;14.00;99.90
13211;DHT22;6670;51.53087800;7.23266500;2024-02-15T10:46:02;14.10;99.90
13211;DHT22;6670;51.53087800;7.23266500;2024-02-15T10:48:30;14.10;99.90
13211;DHT22;6670;51.53087800;7.23266500;2024-02-15T10:50:59;14.20;99.90
13211;DHT22;6670;51.53087800;7.23266500;2024-02-15T10:53:31;14.10;99.90
13211;DHT22;6670;51.53087800;7.23266500;2024-02-15T10:56:05;14.20;99.90
13211;DHT22;6670;51.53087800;7.23266500;2024-02-15T10:58:49;14.10;99.90
13211;DHT22;6670;51.53087800;7.23266500;2024-02-15T11:01:18;14.20;99.90
13211;DHT22;6670;51.53087800;7.23266500;2024-02-15T11:03:51;14.10;99.90
13211;DHT22;6670;51.53087800;7.23266500;2024-02-15T11:06:20;14.20;99.90
13211;DHT22;6670;51.53087800;7.23266500;2024-02-15T11:08:48;14.20;99.90
13211;DHT22;6670;51.53087800;7.23266500;2024-02-15T11:11:17;14.20;99.90
13211;DHT22;6670;51.53087800;7.23266500;2024-02-15T11:13:46;14.20;99.90
13211;DHT22;6670;51.53087800;7.23266500;2024-02-15T11:16:41;14.20;99.90
13211;DHT22;6670;51.53087800;7.23266500;2024-02-15T11:19:08;14.20;99.90
13211;DHT22;6670;51.53087800;7.23266500;2024-02-15T11:21:53;14.20;99.90
13211;DHT22;6670;51.53087800;7.23266500;2024-02-15T11:24:26;14.20;99.90
13211;DHT22;6670;51.53087800;7.23266500;2024-02-15T11:26:58;14.20;99.90
13211;DHT22;6670;51.53087800;7.23266500;2024-02-15T11:29:47;14.20;99.90
13211;DHT22;6670;51.53087800;7.23266500;2024-02-15T11:32:38;14.20;99.90
13211;DHT22;6670;51.53087800;7.23266500;2024-02-15T11:35:11;14.20;99.90
13211;DHT22;6670;51.53087800;7.23266500;2024-02-15T11:37:56;14.30;99.90
13211;DHT22;6670;51.53087800;7.23266500;2024-02-15T11:41:00;14.90;99.90
13211;DHT22;6670;51.53087800;7.23266500;2024-02-15T11:43:50;14.90;99.90
13211;DHT22;6670;51.53087800;7.23266500;2024-02-15T11:46:23;15.00;99.90
13211;DHT22;6670;51.53087800;7.23266500;2024-02-15T11:48:53;14.90;99.90
13211;DHT22;6670;51.53087800;7.23266500;2024-02-15T11:51:29;14.80;99.90
13211;DHT22;6670;51.53087800;7.23266500;2024-02-15T11:54:05;14.50;99.90
13211;DHT22;6670;51.53087800;7.23266500;2024-02-15T11:56:48;14.50;99.90
13211;DHT22;6670;51.53087800;7.23266500;2024-02-15T11:59:31;14.40;99.90
13211;DHT22;6670;51.53087800;7.23266500;2024-02-15T12:02:19;14.40;99.90
13211;DHT22;6670;51.53087800;7.23266500;2024-02-15T12:05:06;14.40;99.90
13211;DHT22;6670;51.53087800;7.23266500;2024-02-15T12:07:54;14.40;99.90
13211;DHT22;6670;51.53087800;7.23266500;2024-02-15T12:10:40;14.40;99.90
13211;DHT22;6670;51.53087800;7.23266500;2024-02-15T12:13:24;14.40;99.90
13211;DHT22;6670;51.53087800;7.23266500;2024-02-15T12:16:09;14.50;99.90
13211;DHT22;6670;51.53087800;7.23266500;2024-02-15T12:18:54;14.60;99.90
13211;DHT22;6670;51.53087800;7.23266500;2024-02-15T12:21:24;14.60;99.90
13211;DHT22;6670;51.53087800;7.23266500;2024-02-15T12:23:53;14.60;99.90
13211;DHT22;6670;51.53087800;7.23266500;2024-02-15T12:26:20;14.70;99.90
13211;DHT22;6670;51.53087800;7.23266500;2024-02-15T12:28:52;14.70;99.90
13211;DHT22;6670;51.53087800;7.23266500;2024-02-15T12:31:22;14.80;99.90
13211;DHT22;6670;51.53087800;7.23266500;2024-02-15T12:34:02;14.80;99.90
13211;DHT22;6670;51.53087800;7.23266500;2024-02-15T12:36:34;14.80;99.90
13211;DHT22;6670;51.53087800;7.23266500;2024-02-15T12:39:04;14.90;99.90
13211;DHT22;6670;51.53087800;7.23266500;2024-02-15T12:41:38;14.90;99.90
13211;DHT22;6670;51.53087800;7.23266500;2024-02-15T12:44:07;14.90;99.90
13211;DHT22;6670;51.53087800;7.23266500;2024-02-15T12:46:36;15.00;99.90
13211;DHT22;6670;51.53087800;7.23266500;2024-02-15T12:49:12;15.00;99.90
13211;DHT22;6670;51.53087800;7.23266500;2024-02-15T12:51:51;15.10;99.90
13211;DHT22;6670;51.53087800;7.23266500;2024-02-15T12:54:19;15.20;99.90
13211;DHT22;6670;51.53087800;7.23266500;2024-02-15T12:56:48;15.30;99.90
13211;DHT22;6670;51.53087800;7.23266500;2024-02-15T12:59:16;15.50;99.90
13211;DHT22;6670;51.53087800;7.23266500;2024-02-15T13:01:45;15.50;99.90
13211;DHT22;6670;51.53087800;7.23266500;2024-02-15T13:04:22;15.50;99.90
13211;DHT22;6670;51.53087800;7.23266500;2024-02-15T13:06:51;15.60;99.90
13211;DHT22;6670;51.53087800;7.23266500;2024-02-15T13:09:19;15.70;99.90
13211;DHT22;6670;51.53087800;7.23266500;2024-02-15T13:11:48;15.80;99.90
13211;DHT22;6670;51.53087800;7.23266500;2024-02-15T13:14:16;15.90;99.90
13211;DHT22;6670;51.53087800;7.23266500;2024-02-15T13:16:44;15.90;99.90
13211;DHT22;6670;51.53087800;7.23266500;2024-02-15T13:19:12;16.00;99.90
13211;DHT22;6670;51.53087800;7.23266500;2024-02-15T13:21:40;16.10;99.90
13211;DHT22;6670;51.53087800;7.23266500;2024-02-15T13:24:09;16.00;99.90
13211;DHT22;6670;51.53087800;7.23266500;2024-02-15T13:26:37;16.10;99.90
13211;DHT22;6670;51.53087800;7.23266500;2024-02-15T13:29:06;16.20;99.90
13211;DHT22;6670;51.53087800;7.23266500;2024-02-15T13:31:33;16.10;99.90
13211;DHT22;6670;51.53087800;7.23266500;2024-02-15T13:34:01;16.20;99.90
13211;DHT22;6670;51.53087800;7.23266500;2024-02-15T13:36:28;16.10;99.90
13211;DHT22;6670;51.53087800;7.23266500;2024-02-15T13:38:56;16.20;99.90
13211;DHT22;6670;51.53087800;7.23266500;2024-02-15T13:41:25;16.10;99.90
13211;DHT22;6670;51.53087800;7.23266500;2024-02-15T13:43:53;16.20;99.90
13211;DHT22;6670;51.53087800;7.23266500;2024-02-15T13:46:25;16.20;99.90
13211;DHT22;6670;51.53087800;7.23266500;2024-02-15T13:48:53;16.20;99.90
13211;DHT22;6670;51.53087800;7.23266500;2024-02-15T13:51:20;16.20;99.90
13211;DHT22;6670;51.53087800;7.23266500;2024-02-15T13:53:48;16.20;99.90
13211;DHT22;6670;51.53087800;7.23266500;2024-02-15T13:56:15;16.20;99.90
13211;DHT22;6670;51.53087800;7.23266500;2024-02-15T13:58:44;16.10;99.90
13211;DHT22;6670;51.53087800;7.23266500;2024-02-15T14:01:12;16.20;99.90
13211;DHT22;6670;51.53087800;7.23266500;2024-02-15T14:03:40;16.20;99.90
13211;DHT22;6670;51.53087800;7.23266500;2024-02-15T14:06:08;16.30;99.90
13211;DHT22;6670;51.53087800;7.23266500;2024-02-15T14:08:35;16.30;99.90
13211;DHT22;6670;51.53087800;7.23266500;2024-02-15T14:11:03;16.20;99.90
13211;DHT22;6670;51.53087800;7.23266500;2024-02-15T14:13:31;16.30;99.90
13211;DHT22;6670;51.53087800;7.23266500;2024-02-15T14:16:00;16.20;99.90
13211;DHT22;6670;51.53087800;7.23266500;2024-02-15T14:18:29;16.10;99.90
13211;DHT22;6670;51.53087800;7.23266500;2024-02-15T14:20:56;16.10;99.90
13211;DHT22;6670;51.53087800;7.23266500;2024-02-15T14:23:26;16.00;99.90
13211;DHT22;6670;51.53087800;7.23266500;2024-02-15T14:25:57;16.00;99.90
13211;DHT22;6670;51.53087800;7.23266500;2024-02-15T14:28:30;16.00;99.90
13211;DHT22;6670;51.53087800;7.23266500;2024-02-15T14:31:17;16.00;99.90
13211;DHT22;6670;51.53087800;7.23266500;2024-02-15T14:34:02;16.00;99.90
13211;DHT22;6670;51.53087800;7.23266500;2024-02-15T14:36:30;16.00;99.90
13211;DHT22;6670;51.53087800;7.23266500;2024-02-15T14:38:57;16.00;99.90
13211;DHT22;6670;51.53087800;7.23266500;2024-02-15T14:41:25;16.00;99.90
13211;DHT22;6670;51.53087800;7.23266500;2024-02-15T14:43:54;16.00;99.90
13211;DHT22;6670;51.53087800;7.23266500;2024-02-15T14:46:24;16.10;99.90
13211;DHT22;6670;51.53087800;7.23266500;2024-02-15T14:48:51;16.00;99.90
13211;DHT22;6670;51.53087800;7.23266500;2024-02-15T14:51:20;16.00;99.90
13211;DHT22;6670;51.53087800;7.23266500;2024-02-15T14:53:48;15.90;99.90
13211;DHT22;6670;51.53087800;7.23266500;2024-02-15T14:56:15;15.90;99.90
13211;DHT22;6670;51.53087800;7.23266500;2024-02-15T14:58:43;15.90;99.90
13211;DHT22;6670;51.53087800;7.23266500;2024-02-15T15:01:11;16.10;99.90
13211;DHT22;6670;51.53087800;7.23266500;2024-02-15T15:03:41;16.10;99.90
13211;DHT22;6670;51.53087800;7.23266500;2024-02-15T15:06:09;16.10;99.90
13211;DHT22;6670;51.53087800;7.23266500;2024-02-15T15:08:54;16.10;99.90
13211;DHT22;6670;51.53087800;7.23266500;2024-02-15T15:11:38;16.00;99.90
13211;DHT22;6670;51.53087800;7.23266500;2024-02-15T15:14:35;16.00;99.90
13211;DHT22;6670;51.53087800;7.23266500;2024-02-15T15:17:04;15.90;99.90
13211;DHT22;6670;51.53087800;7.23266500;2024-02-15T15:19:33;15.90;99.90
13211;DHT22;6670;51.53087800;7.23266500;2024-02-15T15:22:03;15.90;99.90
13211;DHT22;6670;51.53087800;7.23266500;2024-02-15T15:24:33;16.70;99.90
13211;DHT22;6670;51.53087800;7.23266500;2024-02-15T15:27:02;16.70;99.90
13211;DHT22;6670;51.53087800;7.23266500;2024-02-15T15:29:31;16.70;99.90
13211;DHT22;6670;51.53087800;7.23266500;2024-02-15T15:31:58;16.60;99.90
13211;DHT22;6670;51.53087800;7.23266500;2024-02-15T15:34:26;16.60;99.90
13211;DHT22;6670;51.53087800;7.23266500;2024-02-15T15:36:54;16.20;99.90
13211;DHT22;6670;51.53087800;7.23266500;2024-02-15T15:39:23;15.90;99.90
13211;DHT22;6670;51.53087800;7.23266500;2024-02-15T15:41:53;15.80;99.90
13211;DHT22;6670;51.53087800;7.23266500;2024-02-15T15:44:20;15.80;99.90
13211;DHT22;6670;51.53087800;7.23266500;2024-02-15T15:46:53;15.70;99.90
13211;DHT22;6670;51.53087800;7.23266500;2024-02-15T15:49:20;15.70;99.90
13211;DHT22;6670;51.53087800;7.23266500;2024-02-15T15:51:49;15.70;99.90
13211;DHT22;6670;51.53087800;7.23266500;2024-02-15T15:54:18;15.60;99.90
13211;DHT22;6670;51.53087800;7.23266500;2024-02-15T15:56:46;15.60;99.90
13211;DHT22;6670;51.53087800;7.23266500;2024-02-15T15:59:13;15.50;99.90
13211;DHT22;6670;51.53087800;7.23266500;2024-02-15T16:01:48;15.50;99.90
13211;DHT22;6670;51.53087800;7.23266500;2024-02-15T16:04:20;15.50;99.90
13211;DHT22;6670;51.53087800;7.23266500;2024-02-15T16:06:53;15.40;99.90
13211;DHT22;6670;51.53087800;7.23266500;2024-02-15T16:09:26;15.40;99.90
13211;DHT22;6670;51.53087800;7.23266500;2024-02-15T16:11:58;15.40;99.90
13211;DHT22;6670;51.53087800;7.23266500;2024-02-15T16:14:30;15.40;99.90
13211;DHT22;6670;51.53087800;7.23266500;2024-02-15T16:16:58;15.40;99.90
13211;DHT22;6670;51.53087800;7.23266500;2024-02-15T16:19:26;15.40;99.90
13211;DHT22;6670;51.53087800;7.23266500;2024-02-15T16:21:54;15.40;99.90
13211;DHT22;6670;51.53087800;7.23266500;2024-02-15T16:24:22;15.40;99.90
13211;DHT22;6670;51.53087800;7.23266500;2024-02-15T16:26:51;15.30;99.90
13211;DHT22;6670;51.53087800;7.23266500;2024-02-15T16:29:19;15.30;99.90
13211;DHT22;6670;51.53087800;7.23266500;2024-02-15T16:31:47;15.30;99.90
13211;DHT22;6670;51.53087800;7.23266500;2024-02-15T16:34:17;15.30;99.90
13211;DHT22;6670;51.53087800;7.23266500;2024-02-15T16:36:44;15.30;99.90
13211;DHT22;6670;51.53087800;7.23266500;2024-02-15T16:39:12;15.30;99.90
13211;DHT22;6670;51.53087800;7.23266500;2024-02-15T16:41:40;15.30;99.90
13211;DHT22;6670;51.53087800;7.23266500;2024-02-15T16:44:10;15.30;99.90
13211;DHT22;6670;51.53087800;7.23266500;2024-02-15T16:46:37;15.30;99.90
13211;DHT22;6670;51.53087800;7.23266500;2024-02-15T16:49:05;15.30;99.90
13211;DHT22;6670;51.53087800;7.23266500;2024-02-15T16:51:32;15.30;99.90
13211;DHT22;6670;51.53087800;7.23266500;2024-02-15T16:54:01;15.30;99.90
13211;DHT22;6670;51.53087800;7.23266500;2024-02-15T16:56:31;15.30;99.90
13211;DHT22;6670;51.53087800;7.23266500;2024-02-15T16:59:09;15.20;99.90
13211;DHT22;6670;51.53087800;7.23266500;2024-02-15T17:01:37;15.20;99.90
13211;DHT22;6670;51.53087800;7.23266500;2024-02-15T17:04:04;15.20;99.90
13211;DHT22;6670;51.53087800;7.23266500;2024-02-15T17:06:34;15.20;99.90
13211;DHT22;6670;51.53087800;7.23266500;2024-02-15T17:09:01;15.20;99.90
13211;DHT22;6670;51.53087800;7.23266500;2024-02-15T17:11:29;15.10;99.90
13211;DHT22;6670;51.53087800;7.23266500;2024-02-15T17:13:56;15.10;99.90
13211;DHT22;6670;51.53087800;7.23266500;2024-02-15T17:16:28;15.20;99.90
13211;DHT22;6670;51.53087800;7.23266500;2024-02-15T17:18:57;15.10;99.90
13211;DHT22;6670;51.53087800;7.23266500;2024-02-15T17:21:25;15.10;99.90
13211;DHT22;6670;51.53087800;7.23266500;2024-02-15T17:23:54;15.10;99.90
13211;DHT22;6670;51.53087800;7.23266500;2024-02-15T17:26:21;15.10;99.90
13211;DHT22;6670;51.53087800;7.23266500;2024-02-15T17:28:49;15.10;99.90
13211;DHT22;6670;51.53087800;7.23266500;2024-02-15T17:31:19;15.10;99.90
13211;DHT22;6670;51.53087800;7.23266500;2024-02-15T17:33:48;15.00;99.90
13211;DHT22;6670;51.53087800;7.23266500;2024-02-15T17:36:16;15.00;99.90
13211;DHT22;6670;51.53087800;7.23266500;2024-02-15T17:38:43;15.00;99.90
13211;DHT22;6670;51.53087800;7.23266500;2024-02-15T17:41:12;15.00;99.90
13211;DHT22;6670;51.53087800;7.23266500;2024-02-15T17:43:39;14.90;99.90
13211;DHT22;6670;51.53087800;7.23266500;2024-02-15T17:46:07;15.00;99.90
13211;DHT22;6670;51.53087800;7.23266500;2024-02-15T17:48:34;14.90;99.90
13211;DHT22;6670;51.53087800;7.23266500;2024-02-15T17:51:05;14.90;99.90
13211;DHT22;6670;51.53087800;7.23266500;2024-02-15T17:53:32;14.90;99.90
13211;DHT22;6670;51.53087800;7.23266500;2024-02-15T17:56:02;14.90;99.90
13211;DHT22;6670;51.53087800;7.23266500;2024-02-15T17:58:32;14.90;99.90
13211;DHT22;6670;51.53087800;7.23266500;2024-02-15T18:01:00;14.80;99.90
13211;DHT22;6670;51.53087800;7.23266500;2024-02-15T18:03:27;14.80;99.90
13211;DHT22;6670;51.53087800;7.23266500;2024-02-15T18:05:55;14.80;99.90
13211;DHT22;6670;51.53087800;7.23266500;2024-02-15T18:08:25;14.80;99.90
13211;DHT22;6670;51.53087800;7.23266500;2024-02-15T18:10:54;15.40;99.90
13211;DHT22;6670;51.53087800;7.23266500;2024-02-15T18:13:22;15.50;99.90
13211;DHT22;6670;51.53087800;7.23266500;2024-02-15T18:15:50;15.80;99.90
13211;DHT22;6670;51.53087800;7.23266500;2024-02-15T18:18:19;15.70;99.90